Time;durP1;ratioP1;P1;durP2;ratioP2;P2;SDS_P1;SDS_P2;PMS_P1;PMS_P2;Temp;Humidity;BMP_temperature;BMP_pressure;BME280_temperature;BME280_humidity;BME280_pressure;Samples;Min_cycle;Max_cycle;Signal;HPM_P1;HPM_P2
2023/03/18 00:01:03;;;;;;;10.65;5.95;;;11.80;99.90;;;;;;5082704;28;20078;-69
2023/03/18 00:03:36;;;;;;;11.75;6.68;;;11.70;99.90;;;;;;5106132;28;20192;-69
2023/03/18 00:06:06;;;;;;;10.48;6.03;;;11.80;99.90;;;;;;5095345;28;20074;-69
2023/03/18 00:08:32;;;;;;;11.32;6.32;;;11.90;99.90;;;;;;5112476;28;20556;-69
2023/03/18 00:10:59;;;;;;;11.73;6.10;;;11.90;99.90;;;;;;5111352;28;20040;-69
2023/03/18 00:13:26;;;;;;;9.85;6.10;;;11.90;99.90;;;;;;5094601;28;20399;-69
2023/03/18 00:15:52;;;;;;;10.55;6.22;;;11.90;99.90;;;;;;5112406;28;20051;-69
2023/03/18 00:18:18;;;;;;;12.18;5.85;;;11.90;99.90;;;;;;5112242;28;20487;-69
2023/03/18 00:20:44;;;;;;;11.25;6.30;;;11.90;99.90;;;;;;5145715;27;20032;-69
2023/03/18 00:23:10;;;;;;;10.32;5.95;;;11.90;99.90;;;;;;5096505;28;20043;-70
2023/03/18 00:25:37;;;;;;;11.27;5.70;;;11.90;99.90;;;;;;5074940;28;20381;-69
2023/03/18 00:28:05;;;;;;;10.70;5.70;;;12.00;99.90;;;;;;5093691;28;20458;-70
2023/03/18 00:30:32;;;;;;;10.35;5.93;;;12.00;99.90;;;;;;5079153;28;20049;-69
2023/03/18 00:32:59;;;;;;;10.50;6.05;;;12.00;99.90;;;;;;5104258;28;20499;-70
2023/03/18 00:35:29;;;;;;;11.38;6.50;;;12.00;99.90;;;;;;5112500;28;20119;-69
2023/03/18 00:37:56;;;;;;;9.88;5.93;;;12.10;99.90;;;;;;5099615;28;20039;-69
2023/03/18 00:40:28;;;;;;;11.35;6.75;;;12.10;99.90;;;;;;5100555;28;20123;-69
2023/03/18 00:43:06;;;;;;;12.15;6.20;;;12.00;99.90;;;;;;5112806;27;20102;-69
2023/03/18 00:45:32;;;;;;;11.98;6.38;;;12.00;99.90;;;;;;5095809;28;20526;-70
2023/03/18 00:47:58;;;;;;;10.73;6.35;;;12.10;99.90;;;;;;5095828;28;20046;-70
2023/03/18 00:50:23;;;;;;;10.40;7.05;;;12.10;99.90;;;;;;5129178;27;20059;-70
2023/03/18 00:52:49;;;;;;;11.25;6.68;;;12.00;99.90;;;;;;5078525;28;20055;-69
2023/03/18 00:55:15;;;;;;;14.70;7.57;;;12.00;99.90;;;;;;5129749;27;20050;-69
2023/03/18 00:57:41;;;;;;;13.43;7.78;;;11.90;99.90;;;;;;5129977;27;20079;-69
2023/03/18 01:00:07;;;;;;;11.98;7.70;;;11.80;99.90;;;;;;5135525;27;20429;-69
2023/03/18 01:02:33;;;;;;;12.73;7.47;;;11.80;99.90;;;;;;5095238;28;20043;-69
2023/03/18 01:04:58;;;;;;;13.10;8.07;;;11.70;99.90;;;;;;5097808;28;20046;-69
2023/03/18 01:07:24;;;;;;;13.85;8.35;;;11.60;99.90;;;;;;5115798;28;20119;-69
2023/03/18 01:09:50;;;;;;;12.73;8.68;;;11.60;99.90;;;;;;5128378;27;20395;-69
2023/03/18 01:12:16;;;;;;;14.32;8.65;;;11.60;99.90;;;;;;5129281;27;20541;-69
2023/03/18 01:14:43;;;;;;;15.60;8.20;;;11.60;99.90;;;;;;5095278;28;20044;-69
2023/03/18 01:17:08;;;;;;;12.68;8.48;;;11.60;99.90;;;;;;5112241;28;20115;-69
2023/03/18 01:19:34;;;;;;;13.38;8.98;;;11.50;99.90;;;;;;5113704;28;20123;-70
2023/03/18 01:22:02;;;;;;;15.82;9.73;;;11.40;99.90;;;;;;5109175;28;20559;-69
2023/03/18 01:24:28;;;;;;;15.98;8.77;;;11.40;99.90;;;;;;5127106;27;20066;-69
2023/03/18 01:26:54;;;;;;;12.75;9.00;;;11.30;99.90;;;;;;5098786;28;20124;-69
2023/03/18 01:29:21;;;;;;;15.60;10.07;;;11.20;99.90;;;;;;5098090;28;20043;-69
2023/03/18 01:31:47;;;;;;;14.02;9.98;;;11.20;99.90;;;;;;5113286;27;20023;-70
2023/03/18 01:34:13;;;;;;;16.10;10.45;;;11.20;99.90;;;;;;5097282;28;20107;-70
2023/03/18 01:36:39;;;;;;;15.35;9.52;;;11.20;99.90;;;;;;5130637;27;20048;-69
2023/03/18 01:39:05;;;;;;;14.35;10.40;;;11.20;99.90;;;;;;5110668;28;20509;-69
2023/03/18 01:41:31;;;;;;;14.45;10.52;;;11.20;99.90;;;;;;5094279;28;20043;-69
2023/03/18 01:43:57;;;;;;;13.57;10.23;;;11.10;99.90;;;;;;5128516;27;20047;-70
2023/03/18 01:46:34;;;;;;;16.75;10.38;;;11.00;99.90;;;;;;5094713;28;20032;-69
2023/03/18 01:49:05;;;;;;;17.00;11.82;;;11.00;99.90;;;;;;5077433;28;20044;-70
2023/03/18 01:51:31;;;;;;;15.55;11.77;;;11.10;99.90;;;;;;5077203;28;20399;-69
2023/03/18 01:54:00;;;;;;;20.67;12.70;;;11.10;99.90;;;;;;5111570;28;20044;-69
2023/03/18 01:56:26;;;;;;;16.20;11.75;;;11.00;99.90;;;;;;5111791;28;20404;-69
2023/03/18 01:58:56;;;;;;;16.00;11.93;;;10.90;99.90;;;;;;5128667;27;20044;-69
2023/03/18 02:01:40;;;;;;;16.83;12.68;;;10.90;99.90;;;;;;5126172;27;20487;-69
2023/03/18 02:04:09;;;;;;;19.17;12.52;;;11.00;99.90;;;;;;5077872;28;20463;-69
2023/03/18 02:06:35;;;;;;;19.13;13.27;;;11.00;99.90;;;;;;5094347;28;20089;-69
2023/03/18 02:09:02;;;;;;;19.25;13.98;;;11.10;99.90;;;;;;5093779;28;20044;-71
2023/03/18 02:11:34;;;;;;;20.60;14.15;;;11.20;99.90;;;;;;5094417;28;20055;-70
2023/03/18 02:14:00;;;;;;;;;;;11.20;99.90;;;;;;5114263;28;20075;-69
2023/03/18 02:16:55;;;;;;;20.98;14.32;;;11.10;99.90;;;;;;5114531;28;19923;-69
2023/03/18 02:19:43;;;;;;;21.30;15.32;;;10.90;99.90;;;;;;5113725;28;20075;-69
2023/03/18 02:22:34;;;;;;;20.92;14.93;;;10.80;99.90;;;;;;5079511;28;20040;-69
2023/03/18 02:25:24;;;;;;;20.48;14.70;;;10.70;99.90;;;;;;5097326;28;20046;-69
2023/03/18 02:28:08;;;;;;;21.08;14.23;;;10.70;99.90;;;;;;5097309;28;20125;-69
2023/03/18 02:30:40;;;;;;;20.52;14.85;;;10.70;99.90;;;;;;5089841;28;20036;-70
2023/03/18 02:33:08;;;;;;;20.80;14.32;;;10.90;99.90;;;;;;5096151;28;20543;-69
2023/03/18 02:35:34;;;;;;;22.55;14.68;;;10.90;99.90;;;;;;5114383;28;20538;-69
2023/03/18 02:38:01;;;;;;;19.67;14.15;;;10.90;99.90;;;;;;5101805;28;20453;-69
2023/03/18 02:40:31;;;;;;;18.90;14.20;;;10.90;99.90;;;;;;5103402;28;20483;-69
2023/03/18 02:43:24;;;;;;;19.98;14.70;;;10.90;99.90;;;;;;5139725;27;20046;-69
2023/03/18 02:46:16;;;;;;;19.80;14.48;;;10.90;99.90;;;;;;5080618;28;20092;-69
2023/03/18 02:48:44;;;;;;;19.83;13.82;;;10.70;99.90;;;;;;5097217;28;20066;-69
2023/03/18 02:51:12;;;;;;;19.95;14.23;;;10.80;99.90;;;;;;5110754;28;20055;-69
2023/03/18 02:53:38;;;;;;;20.45;13.80;;;10.70;99.90;;;;;;5093466;28;20399;-69
2023/03/18 02:56:04;;;;;;;18.85;14.35;;;10.80;99.90;;;;;;5078044;28;20085;-69
2023/03/18 02:58:31;;;;;;;21.60;14.90;;;10.80;99.90;;;;;;5093861;28;20032;-69
2023/03/18 03:00:56;;;;;;;21.90;14.05;;;10.60;99.90;;;;;;5096899;28;20462;-69
2023/03/18 03:03:23;;;;;;;21.83;15.20;;;10.60;99.90;;;;;;5095459;28;20075;-69
2023/03/18 03:05:49;;;;;;;23.45;16.45;;;10.50;99.90;;;;;;5112550;28;20109;-69
2023/03/18 03:08:15;;;;;;;23.25;15.60;;;10.40;99.90;;;;;;5127941;27;20501;-69
2023/03/18 03:10:41;;;;;;;20.25;15.18;;;10.50;99.90;;;;;;5088223;28;20032;-69
2023/03/18 03:13:08;;;;;;;25.33;17.15;;;10.50;99.90;;;;;;5078553;28;20100;-69
2023/03/18 03:15:37;;;;;;;17.50;13.45;;;10.40;99.90;;;;;;5109644;28;20035;-69
2023/03/18 03:18:04;;;;;;;19.85;15.15;;;10.30;99.90;;;;;;5115480;27;20516;-69
2023/03/18 03:20:34;;;;;;;21.63;16.27;;;10.30;99.90;;;;;;5110102;28;20033;-69
2023/03/18 03:23:05;;;;;;;20.33;15.98;;;10.40;99.90;;;;;;5122366;27;20047;-69
2023/03/18 03:25:31;;;;;;;19.85;15.05;;;10.50;99.90;;;;;;5102891;28;20570;-69
2023/03/18 03:27:57;;;;;;;21.20;15.27;;;10.50;99.90;;;;;;5083775;28;20115;-69
2023/03/18 03:30:23;;;;;;;21.55;14.82;;;10.50;99.90;;;;;;5108267;28;20035;-69
2023/03/18 03:32:49;;;;;;;21.25;15.05;;;10.50;99.90;;;;;;5108721;28;20576;-69
2023/03/18 03:35:18;;;;;;;20.80;14.95;;;10.50;99.90;;;;;;5090587;28;20059;-69
2023/03/18 03:37:43;;;;;;;22.67;15.38;;;10.50;99.90;;;;;;5096947;28;20044;-69
2023/03/18 03:40:11;;;;;;;22.85;15.80;;;10.40;99.90;;;;;;5122953;27;20396;-69
2023/03/18 03:42:36;;;;;;;21.38;15.77;;;10.40;99.90;;;;;;5092170;28;20031;-69
2023/03/18 03:45:04;;;;;;;22.02;15.75;;;10.40;99.90;;;;;;5121764;27;20051;-69
2023/03/18 03:47:30;;;;;;;23.70;15.93;;;10.40;99.90;;;;;;5081634;28;20080;-69
2023/03/18 03:49:56;;;;;;;21.42;15.63;;;10.50;99.90;;;;;;5101217;28;20499;-69
2023/03/18 03:52:22;;;;;;;22.40;14.90;;;10.40;99.90;;;;;;5113018;28;20118;-70
2023/03/18 03:54:49;;;;;;;20.35;14.63;;;10.50;99.90;;;;;;5093947;28;20032;-69
2023/03/18 03:57:15;;;;;;;22.35;16.15;;;10.50;99.90;;;;;;5127795;27;20668;-69
2023/03/18 03:59:41;;;;;;;23.90;16.20;;;10.50;99.90;;;;;;5112567;28;20491;-69
2023/03/18 04:02:07;;;;;;;22.65;14.65;;;10.50;99.90;;;;;;5095353;28;20039;-69
2023/03/18 04:04:33;;;;;;;20.40;15.40;;;10.50;99.90;;;;;;5104668;28;20031;-69
2023/03/18 04:06:59;;;;;;;21.80;15.90;;;10.40;99.90;;;;;;5118409;27;20058;-70
2023/03/18 04:09:25;;;;;;;22.63;16.77;;;10.30;99.90;;;;;;5096782;28;20442;-69
2023/03/18 04:11:50;;;;;;;23.17;16.70;;;10.30;99.90;;;;;;5107980;28;20134;-69
2023/03/18 04:14:16;;;;;;;23.45;17.38;;;10.30;99.90;;;;;;5114522;27;20551;-69
2023/03/18 04:16:43;;;;;;;23.35;17.25;;;10.20;99.90;;;;;;5108014;28;20462;-69
2023/03/18 04:19:09;;;;;;;22.48;17.42;;;10.20;99.90;;;;;;5131197;27;20134;-69
2023/03/18 04:21:35;;;;;;;24.65;16.98;;;10.20;99.90;;;;;;5107797;28;20071;-69
2023/03/18 04:24:02;;;;;;;21.00;16.52;;;10.10;99.90;;;;;;5093995;28;20042;-69
2023/03/18 04:26:29;;;;;;;23.38;16.80;;;10.20;99.90;;;;;;5083312;28;20062;-69
2023/03/18 04:28:56;;;;;;;23.25;16.35;;;10.20;99.90;;;;;;5102548;28;20042;-69
2023/03/18 04:31:22;;;;;;;23.98;17.15;;;10.20;99.90;;;;;;5108082;28;20036;-69
2023/03/18 04:33:47;;;;;;;25.02;17.50;;;10.20;99.90;;;;;;5112150;28;20050;-69
2023/03/18 04:36:14;;;;;;;24.30;17.10;;;10.20;99.90;;;;;;5100792;28;20047;-69
2023/03/18 04:38:40;;;;;;;24.27;17.38;;;10.10;99.90;;;;;;5091231;28;20071;-69
2023/03/18 04:41:05;;;;;;;23.30;16.33;;;10.10;99.90;;;;;;5115416;28;20066;-69
2023/03/18 04:43:31;;;;;;;22.95;16.75;;;10.20;99.90;;;;;;5144635;27;20038;-69
2023/03/18 04:45:56;;;;;;;24.98;17.35;;;10.20;99.90;;;;;;5107212;28;20123;-69
2023/03/18 04:48:22;;;;;;;22.38;17.25;;;10.20;99.90;;;;;;5119629;28;20040;-69
2023/03/18 04:50:48;;;;;;;24.35;17.40;;;10.30;99.90;;;;;;5127913;27;20189;-69
2023/03/18 04:53:14;;;;;;;23.33;17.02;;;10.30;99.90;;;;;;5100312;28;20055;-69
2023/03/18 04:55:40;;;;;;;28.80;19.33;;;10.20;99.90;;;;;;5129197;27;20507;-69
2023/03/18 04:58:05;;;;;;;25.73;19.25;;;10.30;99.90;;;;;;5095546;28;20093;-69
2023/03/18 05:00:31;;;;;;;24.98;17.73;;;10.30;99.90;;;;;;5121186;28;20028;-69
2023/03/18 05:02:57;;;;;;;26.00;17.52;;;10.30;99.90;;;;;;5129069;27;20119;-69
2023/03/18 05:05:22;;;;;;;25.02;17.65;;;10.20;99.90;;;;;;5107370;28;20031;-69
2023/03/18 05:07:48;;;;;;;26.13;17.98;;;10.30;99.90;;;;;;5106330;28;20093;-69
2023/03/18 05:10:13;;;;;;;24.08;17.33;;;10.30;99.90;;;;;;5091471;28;20085;-69
2023/03/18 05:12:40;;;;;;;25.92;18.90;;;10.30;99.90;;;;;;5089624;28;20407;-69
2023/03/18 05:15:06;;;;;;;27.00;17.63;;;10.30;99.90;;;;;;5111720;28;20036;-69
2023/03/18 05:17:32;;;;;;;25.05;17.95;;;10.30;99.90;;;;;;5083989;28;20527;-69
2023/03/18 05:19:58;;;;;;;26.88;17.60;;;10.30;99.90;;;;;;5129718;27;20071;-69
2023/03/18 05:22:24;;;;;;;23.08;17.83;;;10.30;99.90;;;;;;5123875;27;20509;-69
2023/03/18 05:24:49;;;;;;;27.38;18.38;;;10.30;99.90;;;;;;5091550;28;20044;-69
2023/03/18 05:27:17;;;;;;;24.52;18.25;;;10.20;99.90;;;;;;5123195;27;20046;-69
2023/03/18 05:29:43;;;;;;;27.75;19.67;;;10.20;99.90;;;;;;5090387;28;20127;-69
2023/03/18 05:32:10;;;;;;;24.40;18.00;;;10.20;99.90;;;;;;5112951;28;20119;-69
2023/03/18 05:34:38;;;;;;;24.27;18.73;;;10.20;99.90;;;;;;5149645;27;20039;-69
2023/03/18 05:37:05;;;;;;;25.77;18.92;;;10.10;99.90;;;;;;5145275;27;20084;-69
2023/03/18 05:39:32;;;;;;;25.63;18.30;;;10.10;99.90;;;;;;5109526;27;20783;-69
2023/03/18 05:41:58;;;;;;;26.10;19.10;;;10.00;99.90;;;;;;5118255;27;20043;-69
2023/03/18 05:44:24;;;;;;;25.05;18.58;;;10.00;99.90;;;;;;5107663;27;20436;-69
2023/03/18 05:46:51;;;;;;;29.15;19.45;;;10.00;99.90;;;;;;5140638;27;20111;-69
2023/03/18 05:49:18;;;;;;;23.80;17.20;;;10.00;99.90;;;;;;5110611;28;20046;-69
2023/03/18 05:51:45;;;;;;;27.40;18.55;;;10.10;99.90;;;;;;5083932;28;20181;-69
2023/03/18 05:54:11;;;;;;;26.33;19.50;;;10.10;99.90;;;;;;5097898;28;20036;-69
2023/03/18 05:56:36;;;;;;;28.55;19.00;;;9.90;99.90;;;;;;5095368;28;20100;-69
2023/03/18 05:59:02;;;;;;;26.95;19.52;;;10.00;99.90;;;;;;5110995;28;20031;-69
2023/03/18 06:01:30;;;;;;;24.90;18.13;;;9.90;99.90;;;;;;5127071;27;20082;-69
2023/03/18 06:03:55;;;;;;;26.98;19.83;;;9.90;99.90;;;;;;5111905;28;20103;-69
2023/03/18 06:06:21;;;;;;;25.15;17.48;;;10.00;99.90;;;;;;5104737;28;20115;-69
2023/03/18 06:08:47;;;;;;;25.60;18.98;;;10.00;99.90;;;;;;5132187;27;20036;-69
2023/03/18 06:11:13;;;;;;;23.45;18.48;;;10.00;99.90;;;;;;5127079;27;20044;-69
2023/03/18 06:13:38;;;;;;;25.42;18.33;;;10.00;99.90;;;;;;5112936;27;20526;-69
2023/03/18 06:16:05;;;;;;;25.13;19.52;;;10.00;99.90;;;;;;5107922;28;20039;-69
2023/03/18 06:18:30;;;;;;;25.05;18.42;;;10.00;99.90;;;;;;5107527;28;20048;-69
2023/03/18 06:20:56;;;;;;;25.90;18.90;;;10.00;99.90;;;;;;5130684;27;20039;-69
2023/03/18 06:23:22;;;;;;;28.02;19.17;;;10.00;99.90;;;;;;5113503;27;20051;-69
2023/03/18 06:25:48;;;;;;;27.50;20.58;;;10.00;99.90;;;;;;5093013;28;20043;-69
2023/03/18 06:28:14;;;;;;;25.73;19.55;;;10.00;99.90;;;;;;5102819;28;20043;-69
2023/03/18 06:30:40;;;;;;;24.65;18.80;;;9.90;99.90;;;;;;5126813;27;20044;-69
2023/03/18 06:33:07;;;;;;;26.00;18.70;;;9.90;99.90;;;;;;5102370;28;20039;-69
2023/03/18 06:35:33;;;;;;;23.58;18.67;;;9.80;99.90;;;;;;5094898;28;20047;-69
2023/03/18 06:37:58;;;;;;;23.27;17.90;;;9.80;99.90;;;;;;5096994;28;20211;-69
2023/03/18 06:40:24;;;;;;;26.13;18.98;;;9.80;99.90;;;;;;5130803;27;20031;-69
2023/03/18 06:42:50;;;;;;;24.55;17.73;;;9.90;99.90;;;;;;5112175;27;20042;-69
2023/03/18 06:45:16;;;;;;;22.90;18.27;;;9.90;99.90;;;;;;5106247;28;20041;-70
2023/03/18 06:47:43;;;;;;;24.48;18.48;;;9.90;99.90;;;;;;5113790;28;20487;-70
2023/03/18 06:50:10;;;;;;;24.23;19.98;;;10.00;99.90;;;;;;5093245;28;20047;-70
2023/03/18 06:52:37;;;;;;;26.00;19.88;;;10.00;99.90;;;;;;5094182;28;20506;-70
2023/03/18 06:55:05;;;;;;;27.95;20.15;;;10.00;99.90;;;;;;5108415;28;20046;-70
2023/03/18 06:57:31;;;;;;;28.83;19.00;;;10.10;99.90;;;;;;5112823;28;20164;-70
2023/03/18 06:59:57;;;;;;;25.88;20.50;;;10.00;99.90;;;;;;5088107;28;20032;-70
2023/03/18 07:02:23;;;;;;;25.80;19.42;;;10.10;99.90;;;;;;5112681;28;20101;-70
2023/03/18 07:04:50;;;;;;;23.92;18.48;;;10.10;99.90;;;;;;5111363;28;20044;-70
2023/03/18 07:07:15;;;;;;;25.40;18.67;;;10.10;99.90;;;;;;5107882;27;20391;-70
2023/03/18 07:09:43;;;;;;;25.05;18.63;;;10.10;99.90;;;;;;5132722;27;20036;-68
2023/03/18 07:12:12;;;;;;;23.85;18.52;;;10.10;99.90;;;;;;5093792;28;20492;-69
2023/03/18 07:14:38;;;;;;;24.67;19.23;;;10.10;99.90;;;;;;5093914;27;20042;-70
2023/03/18 07:17:04;;;;;;;26.48;19.15;;;10.20;99.90;;;;;;5130553;27;20072;-70
2023/03/18 07:19:31;;;;;;;27.77;19.92;;;10.30;99.90;;;;;;5080893;28;20066;-69
2023/03/18 07:21:56;;;;;;;25.33;20.10;;;10.30;99.90;;;;;;5083439;27;20047;-69
2023/03/18 07:24:22;;;;;;;24.60;19.08;;;10.30;99.90;;;;;;5118276;27;20399;-69
2023/03/18 07:26:49;;;;;;;25.17;20.27;;;10.40;99.90;;;;;;5085840;28;20047;-70
2023/03/18 07:29:15;;;;;;;25.35;20.25;;;10.50;99.90;;;;;;5146513;27;20499;-69
2023/03/18 07:31:42;;;;;;;27.02;19.05;;;10.60;99.90;;;;;;5090179;28;20096;-70
2023/03/18 07:34:08;;;;;;;25.15;19.67;;;10.70;99.90;;;;;;5112914;28;20122;-70
2023/03/18 07:36:35;;;;;;;25.95;18.15;;;10.80;99.90;;;;;;5119578;27;20547;-70
2023/03/18 07:39:02;;;;;;;26.00;19.67;;;10.90;99.90;;;;;;5120709;27;20035;-71
2023/03/18 07:41:28;;;;;;;25.80;18.90;;;11.00;99.90;;;;;;5107139;28;20043;-69
2023/03/18 07:43:54;;;;;;;24.95;19.30;;;11.10;99.90;;;;;;5135847;27;20051;-70
2023/03/18 07:46:20;;;;;;;24.15;19.02;;;11.10;99.90;;;;;;5099039;28;20488;-70
2023/03/18 07:48:46;;;;;;;23.77;18.50;;;11.10;99.90;;;;;;5088307;28;20047;-69
2023/03/18 07:51:13;;;;;;;26.55;19.17;;;11.10;99.90;;;;;;5110503;28;20055;-71
2023/03/18 07:53:40;;;;;;;24.42;17.75;;;11.10;99.90;;;;;;5109002;28;20054;-71
2023/03/18 07:56:07;;;;;;;22.35;17.30;;;11.10;99.90;;;;;;5082854;28;20511;-70
2023/03/18 07:58:33;;;;;;;23.15;17.58;;;11.10;99.90;;;;;;5077231;28;20036;-71
2023/03/18 08:00:59;;;;;;;24.80;17.42;;;11.10;99.90;;;;;;5108072;28;20039;-70
2023/03/18 08:03:24;;;;;;;23.48;17.20;;;11.10;99.90;;;;;;5095377;28;20127;-71
2023/03/18 08:05:50;;;;;;;23.00;16.98;;;11.10;99.90;;;;;;5098538;28;20067;-70
2023/03/18 08:08:16;;;;;;;23.00;16.70;;;11.10;99.90;;;;;;5088314;28;20044;-71
2023/03/18 08:10:42;;;;;;;21.73;17.35;;;11.00;99.90;;;;;;5108778;28;20044;-71
2023/03/18 08:13:07;;;;;;;21.63;17.20;;;11.00;99.90;;;;;;5129711;27;21939;-71
2023/03/18 08:15:33;;;;;;;22.48;16.98;;;11.00;99.90;;;;;;5081287;28;20093;-75
2023/03/18 08:17:59;;;;;;;22.30;16.42;;;11.00;99.90;;;;;;5091707;28;20411;-75
2023/03/18 08:20:25;;;;;;;24.80;16.25;;;11.00;99.90;;;;;;5108601;28;20036;-75
2023/03/18 08:22:50;;;;;;;22.30;16.63;;;11.00;99.90;;;;;;5111121;28;20137;-76
2023/03/18 08:25:16;;;;;;;23.58;16.88;;;11.00;99.90;;;;;;5127653;28;20031;-71
2023/03/18 08:27:42;;;;;;;23.95;17.38;;;11.00;99.90;;;;;;5108485;28;20399;-74
2023/03/18 08:30:09;;;;;;;25.85;18.05;;;11.00;99.90;;;;;;5130159;27;20046;-74
2023/03/18 08:32:34;;;;;;;21.42;17.38;;;10.90;99.90;;;;;;5102024;28;20032;-74
2023/03/18 08:35:00;;;;;;;23.52;17.65;;;11.00;99.90;;;;;;5110629;28;20057;-72
2023/03/18 08:37:27;;;;;;;25.02;18.02;;;11.10;99.90;;;;;;5108967;28;20084;-72
2023/03/18 08:39:53;;;;;;;22.33;17.23;;;11.10;99.90;;;;;;5135953;27;20118;-72
2023/03/18 08:42:19;;;;;;;23.75;18.17;;;11.20;99.90;;;;;;5093850;28;20035;-69
2023/03/18 08:44:45;;;;;;;22.10;17.88;;;11.30;99.90;;;;;;5101082;28;20486;-69
2023/03/18 08:47:10;;;;;;;22.17;17.05;;;11.30;99.90;;;;;;5105805;28;20031;-69
2023/03/18 08:49:36;;;;;;;23.98;18.20;;;11.30;99.90;;;;;;5121555;27;20040;-69
2023/03/18 08:52:02;;;;;;;24.38;17.65;;;11.30;99.90;;;;;;5108427;28;20039;-69
2023/03/18 08:54:28;;;;;;;26.48;18.08;;;11.20;99.90;;;;;;5129934;27;20471;-69
2023/03/18 08:56:54;;;;;;;25.02;18.75;;;11.30;99.90;;;;;;5123876;27;20047;-69
2023/03/18 08:59:20;;;;;;;26.27;18.52;;;11.40;99.90;;;;;;5125645;27;20027;-69
2023/03/18 09:01:46;;;;;;;28.50;18.73;;;11.40;99.90;;;;;;5096294;28;20035;-69
2023/03/18 09:04:13;;;;;;;24.05;19.38;;;11.40;99.90;;;;;;5109066;28;20039;-69
2023/03/18 09:06:40;;;;;;;23.70;19.25;;;11.40;99.90;;;;;;5096523;28;20036;-69
2023/03/18 09:09:06;;;;;;;24.17;18.05;;;11.50;99.90;;;;;;5114555;28;20543;-69
2023/03/18 09:11:32;;;;;;;24.63;17.48;;;11.60;99.90;;;;;;5112841;28;20045;-69
2023/03/18 09:13:58;;;;;;;26.95;20.27;;;11.60;99.90;;;;;;5097081;28;20511;-69
2023/03/18 09:16:24;;;;;;;26.38;19.27;;;11.60;99.90;;;;;;5087162;28;20036;-71
2023/03/18 09:18:49;;;;;;;25.35;18.83;;;11.70;99.90;;;;;;5100198;28;20135;-72
2023/03/18 09:21:16;;;;;;;27.50;20.52;;;11.60;99.90;;;;;;5098797;28;20115;-70
2023/03/18 09:23:42;;;;;;;24.55;20.83;;;11.70;99.90;;;;;;5094403;28;20488;-70
2023/03/18 09:26:07;;;;;;;26.30;19.27;;;11.80;99.90;;;;;;5077677;28;20036;-70
2023/03/18 09:28:33;;;;;;;25.23;20.65;;;11.70;99.90;;;;;;5109228;28;20040;-70
2023/03/18 09:30:59;;;;;;;31.45;23.23;;;11.90;99.90;;;;;;5114129;28;20118;-70
2023/03/18 09:33:25;;;;;;;27.92;21.35;;;11.90;99.90;;;;;;5098608;28;20423;-71
2023/03/18 09:35:51;;;;;;;27.77;21.25;;;11.90;99.90;;;;;;5097879;28;20130;-71
2023/03/18 09:38:18;;;;;;;35.45;22.35;;;12.30;99.90;;;;;;5111758;28;20126;-70
2023/03/18 09:41:04;;;;;;;30.42;24.35;;;12.40;99.90;;;;;;5147137;27;20089;-70
2023/03/18 09:43:47;;;;;;;29.20;23.65;;;12.50;99.90;;;;;;5087282;28;20039;-70
2023/03/18 09:46:36;;;;;;;32.88;24.65;;;12.50;99.90;;;;;;5110060;28;20036;-70
2023/03/18 09:49:31;;;;;;;28.05;22.73;;;12.70;99.90;;;;;;5099329;28;20131;-70
2023/03/18 09:52:22;;;;;;;30.23;23.98;;;12.80;99.90;;;;;;5076204;28;20044;-71
2023/03/18 09:54:50;;;;;;;30.42;23.60;;;12.80;99.90;;;;;;5094621;28;20047;-71
2023/03/18 09:57:35;;;;;;;31.10;24.48;;;12.80;99.90;;;;;;5127522;27;20451;-71
2023/03/18 10:00:19;;;;;;;29.42;24.27;;;12.90;99.90;;;;;;5099346;28;20411;-70
2023/03/18 10:03:09;;;;;;;27.92;22.50;;;12.90;99.90;;;;;;5094200;28;20028;-70
2023/03/18 10:05:47;;;;;;;28.58;23.08;;;13.00;99.90;;;;;;5111393;28;20039;-71
2023/03/18 10:08:31;;;;;;;28.92;22.05;;;13.10;99.90;;;;;;5130228;27;20036;-71
2023/03/18 10:11:02;;;;;;;29.95;21.05;;;13.20;99.90;;;;;;5104354;28;20530;-70
2023/03/18 10:13:34;;;;;;;29.27;22.90;;;13.20;99.90;;;;;;5109416;28;20040;-71
2023/03/18 10:16:03;;;;;;;30.90;22.48;;;13.30;99.90;;;;;;5110645;28;20100;-70
2023/03/18 10:18:35;;;;;;;28.58;20.85;;;13.20;99.90;;;;;;5109964;27;20068;-71
2023/03/18 10:21:12;;;;;;;28.58;23.35;;;13.20;99.90;;;;;;5107839;28;20035;-70
2023/03/18 10:23:57;;;;;;;28.55;24.33;;;13.30;99.90;;;;;;5104159;28;20105;-70
2023/03/18 10:26:43;;;;;;;26.75;22.67;;;13.20;99.90;;;;;;5148307;27;20039;-70
2023/03/18 10:29:40;;;;;;;28.77;24.05;;;13.10;99.90;;;;;;5084278;28;20059;-70
2023/03/18 10:32:16;;;;;;;28.90;23.98;;;13.10;99.90;;;;;;5076636;28;20043;-71
2023/03/18 10:34:44;;;;;;;29.52;24.05;;;13.10;99.90;;;;;;5095216;28;20044;-71
2023/03/18 10:37:30;;;;;;;29.48;25.25;;;13.10;99.90;;;;;;5090323;28;20088;-71
2023/03/18 10:39:58;;;;;;;34.25;26.73;;;13.30;99.90;;;;;;5100829;28;20400;-71
2023/03/18 10:42:30;;;;;;;31.95;24.90;;;13.20;99.90;;;;;;5077939;28;20042;-71
2023/03/18 10:45:16;;;;;;;;;;;13.20;99.90;;;;;;5097088;28;20040;-71
2023/03/18 10:47:45;;;;;;;28.63;22.25;;;13.20;99.90;;;;;;5081767;28;20032;-71
2023/03/18 10:50:20;;;;;;;29.48;22.17;;;13.20;99.90;;;;;;5100536;28;20043;-70
2023/03/18 10:53:16;;;;;;;26.23;20.80;;;13.10;99.90;;;;;;5092689;28;20399;-71
2023/03/18 10:56:06;;;;;;;26.88;21.38;;;13.10;99.90;;;;;;5111339;28;20063;-71
2023/03/18 10:58:32;;;;;;;26.88;20.17;;;13.00;99.90;;;;;;5109966;28;20040;-71
2023/03/18 11:00:59;;;;;;;28.45;20.33;;;12.90;99.90;;;;;;5147452;27;20031;-71
2023/03/18 11:03:31;;;;;;;26.23;20.52;;;12.90;99.90;;;;;;5091160;28;20032;-73
2023/03/18 11:06:00;;;;;;;26.92;20.52;;;12.80;99.90;;;;;;5094807;28;20042;-72
2023/03/18 11:08:35;;;;;;;26.52;18.50;;;12.90;99.90;;;;;;5085559;28;20511;-72
2023/03/18 11:11:16;;;;;;;27.98;20.10;;;13.00;99.90;;;;;;5091398;28;20043;-72
2023/03/18 11:13:51;;;;;;;28.55;21.00;;;13.00;99.90;;;;;;5099981;28;20500;-71
2023/03/18 11:16:44;;;;;;;27.75;22.05;;;13.00;99.90;;;;;;5096048;28;20118;-72
2023/03/18 11:19:19;;;;;;;26.73;21.00;;;13.10;99.90;;;;;;5091453;28;20035;-72
2023/03/18 11:21:46;;;;;;;29.92;22.33;;;13.30;99.90;;;;;;5108827;28;20042;-71
2023/03/18 11:24:34;;;;;;;28.67;22.08;;;13.40;99.90;;;;;;5101462;28;20492;-71
2023/03/18 11:27:01;;;;;;;26.63;20.65;;;13.40;99.90;;;;;;5135511;27;20171;-71
2023/03/18 11:29:32;;;;;;;30.02;22.17;;;13.60;99.90;;;;;;5095350;28;20357;-71
2023/03/18 11:31:59;;;;;;;27.58;20.30;;;13.60;99.90;;;;;;5083262;28;20051;-72
2023/03/18 11:34:29;;;;;;;27.08;20.25;;;13.70;99.90;;;;;;5075606;28;20035;-71
2023/03/18 11:37:03;;;;;;;28.58;22.35;;;13.70;99.90;;;;;;5095777;28;20047;-69
2023/03/18 11:39:31;;;;;;;25.70;20.90;;;13.70;99.90;;;;;;5125815;27;20097;-71
2023/03/18 11:41:58;;;;;;;24.10;19.25;;;13.80;99.90;;;;;;5102310;28;20380;-73
2023/03/18 11:44:30;;;;;;;24.02;19.13;;;13.90;99.90;;;;;;5075307;28;20040;-71
2023/03/18 11:47:11;;;;;;;24.10;18.42;;;14.10;99.90;;;;;;5092897;28;20393;-71
2023/03/18 11:49:37;;;;;;;22.85;18.10;;;14.20;99.90;;;;;;5074499;28;20044;-71
2023/03/18 11:52:21;;;;;;;23.63;18.85;;;14.20;99.90;;;;;;5092427;28;20081;-70
2023/03/18 11:55:17;;;;;;;21.92;17.17;;;14.30;99.90;;;;;;5094005;28;20039;-70
2023/03/18 11:58:04;;;;;;;20.02;16.48;;;14.30;99.90;;;;;;5092587;28;20131;-70
2023/03/18 12:01:07;;;;;;;18.65;15.70;;;14.30;99.90;;;;;;5112364;28;20538;-70
2023/03/18 12:04:06;;;;;;;20.92;15.85;;;14.40;99.90;;;;;;5089103;28;20035;-70
2023/03/18 12:06:40;;;;;;;20.92;15.88;;;14.40;99.90;;;;;;5091772;28;20514;-70
2023/03/18 12:09:14;;;;;;;19.42;14.45;;;14.40;99.90;;;;;;5091679;28;20059;-70
2023/03/18 12:12:21;;;;;;;18.70;13.55;;;14.50;99.90;;;;;;5127210;27;20402;-70
2023/03/18 12:15:28;;;;;;;18.35;15.68;;;14.50;99.90;;;;;;5072674;28;20488;-72
2023/03/18 12:18:07;;;;;;;19.75;16.55;;;14.30;99.90;;;;;;5099815;28;20495;-70
2023/03/18 12:20:53;;;;;;;16.20;13.35;;;14.20;99.90;;;;;;5075505;28;20027;-70
2023/03/18 12:23:52;;;;;;;16.45;12.38;;;14.20;99.90;;;;;;5110110;28;20508;-70
2023/03/18 12:26:23;;;;;;;14.85;10.77;;;14.30;99.90;;;;;;5074184;28;20106;-71
2023/03/18 12:28:58;;;;;;;15.43;11.88;;;14.40;99.90;;;;;;5108525;28;20054;-71
2023/03/18 12:31:47;;;;;;;16.20;12.25;;;14.50;99.90;;;;;;5127705;28;20510;-70
2023/03/18 12:35:01;;;;;;;12.38;9.43;;;14.50;99.90;;;;;;5089541;28;20048;-72
2023/03/18 12:37:49;;;;;;;13.13;10.07;;;14.90;99.90;;;;;;5047392;28;20509;-71
2023/03/18 12:40:52;;;;;;;14.50;8.95;;;15.10;99.90;;;;;;5092176;28;20506;-71
2023/03/18 12:43:36;;;;;;;11.30;7.90;;;15.20;99.90;;;;;;5088504;28;20052;-72